CPX303 Details

Departure: Guam International Airport (PGUM)
Arrival: Daniel K Inouye International Airport (PHNL)
Route: DEWSS A450 JIMOS A450 NGUEN A450 BRIUN NONNI BOOKE BOOKE8


Current Weather Information
PGUM 232254Z 14006KT 10SM FEW017 29/24 A2991 RMK AO2 SLP119 T02890239
PHNL 232253Z 16009KT 10SM FEW025 FEW045 31/20 A3003 RMK AO2 SLP167 T03060200